Time;durP1;ratioP1;P1;durP2;ratioP2;P2;SDS_P1;SDS_P2;PMS_P1;PMS_P2;Temp;Humidity;BMP_temperature;BMP_pressure;BME280_temperature;BME280_humidity;BME280_pressure;Samples;Min_cycle;Max_cycle;Signal;HPM_P1;HPM_P2
2021/06/30 00:00:01;;;;;;;6.67;3.07;;;17.70;99.90;;;;;;4992688;28;20208;-91
2021/06/30 00:02:27;;;;;;;7.07;3.30;;;17.60;99.90;;;;;;4991948;28;20228;-89
2021/06/30 00:04:53;;;;;;;4.83;2.97;;;17.50;99.90;;;;;;4973830;28;20183;-88
2021/06/30 00:07:20;;;;;;;6.57;3.30;;;17.30;99.90;;;;;;4993583;28;20178;-87
2021/06/30 00:09:46;;;;;;;9.37;4.10;;;17.20;99.90;;;;;;4990037;28;20641;-90
2021/06/30 00:12:12;;;;;;;7.33;3.83;;;17.20;99.90;;;;;;4975840;28;20300;-89
2021/06/30 00:14:38;;;;;;;7.27;3.80;;;17.30;99.90;;;;;;4978677;28;20182;-87
2021/06/30 00:17:07;;;;;;;7.90;4.33;;;17.20;99.90;;;;;;4991914;28;20188;-90
2021/06/30 00:19:34;;;;;;;8.33;4.70;;;17.20;99.90;;;;;;4992926;28;20641;-87
2021/06/30 00:22:00;;;;;;;10.23;5.30;;;17.30;99.90;;;;;;4997390;28;20210;-89
2021/06/30 00:24:26;;;;;;;9.77;5.53;;;17.30;99.90;;;;;;4997952;28;20318;-88
2021/06/30 00:26:51;;;;;;;13.13;6.63;;;17.30;99.90;;;;;;4995652;28;20638;-86
2021/06/30 00:29:17;;;;;;;11.07;6.20;;;17.30;99.90;;;;;;5000708;28;20185;-87
2021/06/30 00:31:43;;;;;;;14.03;7.23;;;17.20;99.90;;;;;;4995646;28;20227;-85
2021/06/30 00:34:09;;;;;;;14.50;6.83;;;17.20;99.90;;;;;;4995870;28;20654;-88
2021/06/30 00:36:36;;;;;;;14.43;7.77;;;17.30;99.90;;;;;;4993632;28;20256;-88
2021/06/30 00:39:04;;;;;;;12.93;8.30;;;17.20;99.90;;;;;;4978020;28;20271;-86
2021/06/30 00:41:31;;;;;;;14.70;8.30;;;17.20;99.90;;;;;;5012101;28;20184;-88
2021/06/30 00:43:57;;;;;;;15.63;8.70;;;17.20;99.90;;;;;;4995088;28;20178;-85
2021/06/30 00:46:25;;;;;;;13.63;8.40;;;17.00;99.90;;;;;;4994789;28;20634;-86
2021/06/30 00:48:51;;;;;;;16.83;9.27;;;17.00;99.90;;;;;;4981584;28;20242;-85
2021/06/30 00:51:16;;;;;;;13.30;8.57;;;17.10;99.90;;;;;;5014338;28;20200;-86
2021/06/30 00:53:42;;;;;;;15.37;9.07;;;17.00;99.90;;;;;;4982287;28;20208;-86
2021/06/30 00:56:08;;;;;;;14.83;9.10;;;17.00;99.90;;;;;;4980377;28;20184;-87
2021/06/30 00:58:34;;;;;;;14.63;8.90;;;17.00;99.90;;;;;;4977703;28;20261;-86
2021/06/30 01:00:59;;;;;;;13.67;8.83;;;16.70;99.90;;;;;;5014241;28;20220;-85
2021/06/30 01:03:25;;;;;;;16.83;9.10;;;16.40;99.90;;;;;;5000214;28;20647;-84
2021/06/30 01:05:51;;;;;;;16.67;10.13;;;16.50;99.90;;;;;;4997801;28;20240;-85
2021/06/30 01:08:17;;;;;;;16.03;9.90;;;16.50;99.90;;;;;;5015828;28;20188;-85
2021/06/30 01:10:43;;;;;;;14.77;8.93;;;16.60;99.90;;;;;;4979213;28;20192;-84
2021/06/30 01:13:09;;;;;;;15.90;8.13;;;16.80;99.90;;;;;;4978229;28;20608;-85
2021/06/30 01:15:53;;;;;;;12.33;7.80;;;16.80;99.90;;;;;;4983359;28;20196;-85
2021/06/30 01:18:23;;;;;;;14.07;7.60;;;16.80;99.90;;;;;;4980123;28;20185;-86
2021/06/30 01:20:51;;;;;;;12.00;6.90;;;16.90;99.90;;;;;;4998550;28;20185;-85
2021/06/30 01:23:17;;;;;;;13.43;7.17;;;17.00;99.90;;;;;;4981025;28;20241;-85
2021/06/30 01:25:43;;;;;;;13.87;7.50;;;16.80;99.90;;;;;;4978696;28;20177;-86
2021/06/30 01:28:09;;;;;;;11.37;7.43;;;16.90;99.90;;;;;;5014222;28;20242;-86
2021/06/30 01:30:35;;;;;;;12.50;7.93;;;17.00;99.90;;;;;;5014693;28;20188;-85
2021/06/30 01:33:01;;;;;;;15.43;8.87;;;16.70;99.90;;;;;;4980864;28;20642;-86
2021/06/30 01:35:27;;;;;;;14.43;9.20;;;16.60;99.90;;;;;;4979498;28;20531;-85
2021/06/30 01:37:54;;;;;;;14.70;9.37;;;16.70;99.90;;;;;;4997966;28;20647;-84
2021/06/30 01:40:21;;;;;;;18.07;9.40;;;16.70;99.90;;;;;;4997108;28;20289;-85
2021/06/30 01:42:49;;;;;;;15.53;9.30;;;16.70;99.90;;;;;;4994563;28;20192;-85
2021/06/30 01:45:15;;;;;;;17.50;9.43;;;16.80;99.90;;;;;;4998577;28;20188;-84
2021/06/30 01:47:42;;;;;;;16.87;10.40;;;16.70;99.90;;;;;;4995875;28;20180;-83
2021/06/30 01:50:08;;;;;;;16.80;10.50;;;16.80;99.90;;;;;;4994794;28;20181;-85
2021/06/30 01:52:34;;;;;;;17.30;11.80;;;17.00;99.90;;;;;;4981174;28;20204;-84
2021/06/30 01:55:01;;;;;;;19.67;12.60;;;16.90;99.90;;;;;;4980952;28;20666;-85
2021/06/30 01:57:26;;;;;;;21.87;12.60;;;17.00;99.90;;;;;;4997165;28;20208;-85
2021/06/30 01:59:52;;;;;;;19.27;12.37;;;17.00;99.90;;;;;;4981245;28;20213;-86
2021/06/30 02:02:18;;;;;;;21.00;13.03;;;17.10;99.90;;;;;;4980401;28;20227;-85
2021/06/30 02:05:02;;;;;;;23.90;14.10;;;17.20;99.90;;;;;;4996490;28;20235;-85
2021/06/30 02:07:27;;;;;;;24.90;14.10;;;17.30;99.90;;;;;;4996309;28;20260;-84
2021/06/30 02:09:53;;;;;;;23.50;13.40;;;17.30;99.90;;;;;;5014271;28;20264;-85
2021/06/30 02:12:19;;;;;;;24.23;14.13;;;17.10;99.90;;;;;;4979470;28;20485;-85
2021/06/30 02:14:45;;;;;;;23.80;14.63;;;17.00;99.90;;;;;;4998232;28;20195;-86
2021/06/30 02:17:10;;;;;;;30.43;15.73;;;17.10;99.90;;;;;;4991749;28;20182;-84
2021/06/30 02:19:36;;;;;;;28.67;16.07;;;17.20;99.90;;;;;;4980966;28;20293;-85
2021/06/30 02:22:02;;;;;;;26.33;15.33;;;17.20;99.90;;;;;;4980945;28;20209;-84
2021/06/30 02:24:28;;;;;;;28.60;16.60;;;17.10;99.90;;;;;;4980084;28;20188;-85
2021/06/30 02:26:53;;;;;;;32.70;16.70;;;17.10;99.90;;;;;;4995749;28;20194;-85
2021/06/30 02:29:19;;;;;;;30.00;16.47;;;17.10;99.90;;;;;;4981132;28;20185;-86
2021/06/30 02:31:45;;;;;;;30.40;15.70;;;17.20;99.90;;;;;;4977574;28;20640;-85
2021/06/30 02:34:11;;;;;;;29.30;15.30;;;17.20;99.90;;;;;;4981088;28;20543;-86
2021/06/30 02:36:36;;;;;;;27.73;15.77;;;16.80;99.90;;;;;;4982868;28;20247;-86
2021/06/30 02:39:03;;;;;;;33.67;17.43;;;16.50;99.90;;;;;;4993283;28;20204;-85
2021/06/30 02:41:29;;;;;;;32.63;17.73;;;16.60;99.90;;;;;;4977756;28;20180;-86
2021/06/30 02:43:54;;;;;;;36.10;18.97;;;16.60;99.90;;;;;;4994367;28;20196;-85
2021/06/30 02:46:20;;;;;;;35.07;19.13;;;16.60;99.90;;;;;;4976606;28;20185;-85
2021/06/30 02:48:46;;;;;;;42.50;19.93;;;16.60;99.90;;;;;;4983140;28;20197;-85
2021/06/30 02:51:13;;;;;;;39.87;20.37;;;16.60;99.90;;;;;;4980535;28;20550;-85
2021/06/30 02:53:39;;;;;;;47.10;21.23;;;16.60;99.90;;;;;;4980419;28;20196;-84
2021/06/30 02:56:05;;;;;;;44.37;20.80;;;16.60;99.90;;;;;;4998349;28;20189;-83
2021/06/30 02:58:31;;;;;;;42.27;19.33;;;16.60;99.90;;;;;;4977932;28;20552;-86
2021/06/30 03:00:57;;;;;;;39.37;18.20;;;16.60;99.90;;;;;;4984585;28;20656;-85
2021/06/30 03:03:23;;;;;;;44.93;18.83;;;16.50;99.90;;;;;;4994328;28;20271;-85
2021/06/30 03:05:49;;;;;;;44.83;20.00;;;16.40;99.90;;;;;;4984786;28;20179;-86
2021/06/30 03:08:15;;;;;;;39.23;19.03;;;16.30;99.90;;;;;;4979484;28;20575;-84
2021/06/30 03:10:42;;;;;;;41.17;18.83;;;16.30;99.90;;;;;;4981356;28;20569;-84
2021/06/30 03:13:07;;;;;;;40.77;17.27;;;16.40;99.90;;;;;;4975889;28;20209;-84
2021/06/30 03:15:33;;;;;;;38.87;17.47;;;16.40;99.90;;;;;;4971448;28;20185;-84
2021/06/30 03:17:59;;;;;;;30.70;15.17;;;16.40;99.90;;;;;;4978823;28;20226;-83
2021/06/30 03:20:25;;;;;;;36.17;16.67;;;16.50;99.90;;;;;;4997238;28;20263;-85
2021/06/30 03:22:50;;;;;;;30.60;15.63;;;16.70;99.90;;;;;;5011905;28;20184;-85
2021/06/30 03:25:16;;;;;;;33.60;16.87;;;16.80;99.90;;;;;;4979374;28;20212;-85
2021/06/30 03:27:43;;;;;;;32.03;15.33;;;16.80;99.90;;;;;;4993011;28;20183;-85
2021/06/30 03:30:12;;;;;;;27.23;14.70;;;16.80;99.90;;;;;;4981720;28;20547;-84
2021/06/30 03:32:38;;;;;;;27.07;13.87;;;16.80;99.90;;;;;;4975301;28;20184;-84
2021/06/30 03:35:06;;;;;;;28.50;14.40;;;16.80;99.90;;;;;;4992520;28;20190;-85
2021/06/30 03:37:32;;;;;;;26.63;14.33;;;16.60;99.90;;;;;;4979194;28;20196;-84
2021/06/30 03:39:58;;;;;;;28.67;14.43;;;16.50;99.90;;;;;;4969516;28;20716;-85
2021/06/30 03:42:23;;;;;;;32.17;15.40;;;16.60;99.90;;;;;;4994910;28;20189;-85
2021/06/30 03:44:49;;;;;;;26.93;15.30;;;16.70;99.90;;;;;;4972973;28;20180;-84
2021/06/30 03:47:15;;;;;;;29.57;16.20;;;16.60;99.90;;;;;;4979294;28;20267;-85
2021/06/30 03:49:41;;;;;;;27.53;15.10;;;16.60;99.90;;;;;;4981281;28;20244;-84
2021/06/30 03:52:07;;;;;;;29.43;15.57;;;16.60;99.90;;;;;;4999456;28;20184;-85
2021/06/30 03:54:32;;;;;;;38.27;16.67;;;16.50;99.90;;;;;;4983188;28;20192;-84
2021/06/30 03:56:58;;;;;;;29.83;15.87;;;16.60;99.90;;;;;;4980780;28;20658;-84
2021/06/30 03:59:24;;;;;;;30.73;15.43;;;16.60;99.90;;;;;;4994735;28;20757;-86
2021/06/30 04:01:52;;;;;;;35.97;17.20;;;16.60;99.90;;;;;;4995770;28;20179;-84
2021/06/30 04:04:19;;;;;;;33.83;16.60;;;16.70;99.90;;;;;;4976598;28;20184;-84
2021/06/30 04:06:45;;;;;;;30.57;15.27;;;16.60;99.90;;;;;;4979095;28;20178;-84
2021/06/30 04:09:12;;;;;;;30.70;16.37;;;16.70;99.90;;;;;;4980777;28;20189;-84
2021/06/30 04:11:38;;;;;;;32.47;15.63;;;16.60;99.90;;;;;;4992051;28;20660;-83
2021/06/30 04:14:04;;;;;;;34.63;17.03;;;16.70;99.90;;;;;;4995481;28;20405;-85
2021/06/30 04:16:30;;;;;;;32.20;16.10;;;16.60;99.90;;;;;;4994500;28;20200;-84
2021/06/30 04:18:56;;;;;;;29.00;15.40;;;16.50;99.90;;;;;;4976400;28;20259;-85
2021/06/30 04:21:21;;;;;;;34.23;15.23;;;16.40;99.90;;;;;;4979115;28;20174;-85
2021/06/30 04:23:47;;;;;;;30.40;16.57;;;16.50;99.90;;;;;;4977200;28;20188;-83
2021/06/30 04:26:13;;;;;;;32.60;16.40;;;16.60;99.90;;;;;;4981978;28;20180;-86
2021/06/30 04:28:39;;;;;;;30.10;16.77;;;16.60;99.90;;;;;;4983061;28;20195;-85
2021/06/30 04:31:04;;;;;;;29.37;15.90;;;16.60;99.90;;;;;;4984500;28;20651;-86
2021/06/30 04:33:30;;;;;;;32.60;16.03;;;16.70;99.90;;;;;;4997880;28;20189;-85
2021/06/30 04:35:59;;;;;;;31.53;16.37;;;16.80;99.90;;;;;;4982301;28;20267;-85
2021/06/30 04:38:25;;;;;;;27.73;16.07;;;16.90;99.90;;;;;;4997902;28;20287;-86
2021/06/30 04:40:53;;;;;;;26.33;14.60;;;16.80;99.90;;;;;;4981797;28;20264;-85
2021/06/30 04:43:19;;;;;;;24.73;14.57;;;16.70;99.90;;;;;;4981987;28;20552;-85
2021/06/30 04:45:46;;;;;;;27.93;15.13;;;16.60;99.90;;;;;;4995269;28;20652;-84
2021/06/30 04:48:12;;;;;;;28.53;15.07;;;16.60;99.90;;;;;;4995141;28;20592;-85
2021/06/30 04:50:38;;;;;;;27.97;15.43;;;16.60;99.90;;;;;;4979011;28;20218;-84
2021/06/30 04:53:03;;;;;;;26.07;14.90;;;16.50;99.90;;;;;;4979914;28;20271;-86
2021/06/30 04:55:30;;;;;;;25.97;14.10;;;16.60;99.90;;;;;;4997114;28;20273;-85
2021/06/30 04:57:56;;;;;;;26.97;14.37;;;16.70;99.90;;;;;;4973188;28;20557;-85
2021/06/30 05:00:22;;;;;;;23.27;13.87;;;16.60;99.90;;;;;;4996052;28;20221;-86
2021/06/30 05:02:48;;;;;;;26.33;13.87;;;16.70;99.90;;;;;;4979134;28;20178;-85
2021/06/30 05:05:14;;;;;;;24.47;13.83;;;16.70;99.90;;;;;;4994539;28;20660;-85
2021/06/30 05:07:40;;;;;;;24.40;13.93;;;16.70;99.90;;;;;;4979708;28;20185;-85
2021/06/30 05:10:07;;;;;;;22.80;13.20;;;16.70;99.90;;;;;;4997642;28;20185;-86
2021/06/30 05:12:33;;;;;;;25.73;14.23;;;16.60;99.90;;;;;;4979455;28;20259;-86
2021/06/30 05:14:59;;;;;;;24.67;14.03;;;16.50;99.90;;;;;;4982230;28;20186;-86
2021/06/30 05:17:25;;;;;;;24.83;13.77;;;16.60;99.90;;;;;;4982024;28;20196;-85
2021/06/30 05:19:51;;;;;;;24.10;13.43;;;16.40;99.90;;;;;;4981547;28;20208;-85
2021/06/30 05:22:17;;;;;;;26.03;14.13;;;16.50;99.90;;;;;;4981940;28;20188;-85
2021/06/30 05:24:42;;;;;;;26.00;14.40;;;16.50;99.90;;;;;;4995570;28;20235;-84
2021/06/30 05:27:08;;;;;;;26.20;13.97;;;16.50;99.90;;;;;;4992690;28;20580;-84
2021/06/30 05:29:37;;;;;;;29.27;14.80;;;16.60;99.90;;;;;;4981197;28;20195;-89
2021/06/30 05:32:03;;;;;;;29.23;15.50;;;16.60;99.90;;;;;;4984500;28;20189;-85
2021/06/30 05:34:29;;;;;;;31.80;15.27;;;16.70;99.90;;;;;;4980692;28;20189;-83
2021/06/30 05:36:54;;;;;;;27.87;15.07;;;16.80;99.90;;;;;;4981045;28;20262;-84
2021/06/30 05:39:21;;;;;;;32.07;15.80;;;16.80;99.90;;;;;;4990309;28;20705;-86
2021/06/30 05:41:48;;;;;;;29.70;14.67;;;16.80;99.90;;;;;;4982296;28;20191;-85
2021/06/30 05:44:15;;;;;;;30.17;15.63;;;16.70;99.90;;;;;;4997704;28;20241;-84
2021/06/30 05:46:42;;;;;;;29.70;14.50;;;16.80;99.90;;;;;;4981984;28;20196;-84
2021/06/30 05:49:08;;;;;;;27.03;14.53;;;16.60;99.90;;;;;;5005919;28;20181;-83
2021/06/30 05:51:34;;;;;;;24.90;13.70;;;16.40;99.90;;;;;;4995982;28;20196;-83
2021/06/30 05:54:01;;;;;;;26.07;13.80;;;16.50;99.90;;;;;;5008111;28;20226;-82
2021/06/30 05:56:26;;;;;;;20.43;12.50;;;16.30;99.90;;;;;;4981845;28;20555;-85
2021/06/30 05:58:52;;;;;;;19.53;10.57;;;16.20;99.90;;;;;;4976880;28;20210;-85
2021/06/30 06:01:18;;;;;;;20.20;11.73;;;15.70;99.90;;;;;;4977941;28;20234;-85
2021/06/30 06:03:44;;;;;;;21.93;12.33;;;15.60;99.90;;;;;;4971114;28;20187;-84
2021/06/30 06:06:10;;;;;;;25.67;13.70;;;15.70;99.90;;;;;;4992427;28;20182;-86
2021/06/30 06:08:36;;;;;;;26.87;15.60;;;15.80;99.90;;;;;;4972218;28;20270;-85
2021/06/30 06:11:03;;;;;;;26.87;16.90;;;15.80;99.90;;;;;;4978583;28;20245;-84
2021/06/30 06:13:28;;;;;;;29.60;16.10;;;15.90;99.90;;;;;;4977756;28;20266;-84
2021/06/30 06:15:54;;;;;;;29.03;16.63;;;15.90;99.90;;;;;;4978665;28;20748;-82
2021/06/30 06:18:20;;;;;;;33.23;17.27;;;15.80;99.90;;;;;;4993724;28;20556;-84
2021/06/30 06:20:45;;;;;;;31.43;18.13;;;15.90;99.90;;;;;;4995535;28;20186;-84
2021/06/30 06:23:11;;;;;;;29.80;17.90;;;15.90;99.90;;;;;;4992263;28;20321;-81
2021/06/30 06:25:37;;;;;;;33.83;17.97;;;16.10;99.90;;;;;;4979426;28;20187;-86
2021/06/30 06:28:04;;;;;;;35.77;18.73;;;16.20;99.90;;;;;;4978272;28;20191;-85
2021/06/30 06:30:31;;;;;;;39.30;18.90;;;16.30;99.90;;;;;;4977727;28;20183;-85
2021/06/30 06:32:57;;;;;;;36.83;20.80;;;16.40;99.90;;;;;;4978311;28;20293;-85
2021/06/30 06:35:22;;;;;;;41.13;19.10;;;16.40;99.90;;;;;;4982567;28;20588;-84
2021/06/30 06:37:49;;;;;;;42.30;20.03;;;16.40;99.90;;;;;;4992247;28;20557;-85
2021/06/30 06:40:15;;;;;;;39.43;20.17;;;16.20;99.90;;;;;;4990742;28;20724;-85
2021/06/30 06:42:41;;;;;;;47.10;21.60;;;16.40;99.90;;;;;;4994043;28;20654;-85
2021/06/30 06:45:08;;;;;;;43.63;20.70;;;16.40;99.90;;;;;;4977381;28;20611;-85
2021/06/30 06:47:37;;;;;;;43.67;20.33;;;16.40;99.90;;;;;;4974877;28;20247;-84
2021/06/30 06:50:04;;;;;;;45.83;20.97;;;16.40;99.90;;;;;;4989808;28;20208;-84
2021/06/30 06:52:30;;;;;;;45.73;19.87;;;16.60;99.90;;;;;;4979180;28;20202;-85
2021/06/30 06:54:56;;;;;;;53.60;21.10;;;16.60;99.90;;;;;;4978340;28;20561;-85
2021/06/30 06:57:22;;;;;;;44.30;19.93;;;16.70;99.90;;;;;;4977881;28;20195;-85
2021/06/30 06:59:48;;;;;;;40.70;19.33;;;16.80;99.90;;;;;;4976979;28;20733;-85
2021/06/30 07:02:13;;;;;;;39.63;17.33;;;16.80;99.90;;;;;;4978423;28;20241;-85
2021/06/30 07:04:39;;;;;;;37.37;16.23;;;16.50;99.90;;;;;;4980132;28;20658;-86
2021/06/30 07:07:05;;;;;;;28.70;12.70;;;16.30;99.90;;;;;;4977258;28;20666;-84
2021/06/30 07:09:30;;;;;;;32.20;12.40;;;16.40;99.90;;;;;;5008393;28;20643;-85
2021/06/30 07:11:56;;;;;;;30.87;12.73;;;16.50;99.90;;;;;;4975749;28;20731;-85
2021/06/30 07:14:22;;;;;;;25.47;10.90;;;16.50;99.90;;;;;;4992202;28;20191;-85
2021/06/30 07:16:48;;;;;;;28.27;11.60;;;16.10;99.90;;;;;;4977938;28;20193;-85
2021/06/30 07:19:15;;;;;;;27.80;11.57;;;16.00;99.90;;;;;;4976211;28;20211;-85
2021/06/30 07:21:40;;;;;;;29.57;11.80;;;16.20;99.90;;;;;;4982933;28;20190;-85
2021/06/30 07:24:07;;;;;;;30.17;12.50;;;16.30;99.90;;;;;;4975156;28;20175;-85
2021/06/30 07:26:33;;;;;;;33.37;12.87;;;16.00;99.90;;;;;;4984574;28;20219;-85
2021/06/30 07:28:59;;;;;;;33.13;13.33;;;15.90;99.90;;;;;;4976358;28;20206;-85
2021/06/30 07:31:25;;;;;;;31.90;14.17;;;16.00;99.90;;;;;;4978538;28;20241;-85
2021/06/30 07:33:51;;;;;;;32.40;15.17;;;16.30;99.90;;;;;;4975460;28;20220;-84
2021/06/30 07:36:17;;;;;;;32.43;13.07;;;16.40;99.90;;;;;;4992537;28;20184;-85
2021/06/30 07:38:44;;;;;;;30.40;12.97;;;16.30;99.90;;;;;;4993819;28;20185;-85
2021/06/30 07:41:11;;;;;;;33.63;14.33;;;16.20;99.90;;;;;;4977735;28;20235;-85
2021/06/30 07:43:36;;;;;;;29.73;12.90;;;16.30;99.90;;;;;;4976720;28;20190;-84
2021/06/30 07:46:03;;;;;;;28.07;10.70;;;16.40;99.90;;;;;;4995070;28;20274;-85
2021/06/30 07:48:28;;;;;;;27.23;11.00;;;15.90;99.90;;;;;;4982154;28;20245;-86
2021/06/30 07:50:54;;;;;;;26.97;11.00;;;15.90;99.90;;;;;;4978279;28;20223;-85
2021/06/30 07:53:20;;;;;;;23.77;10.30;;;15.90;99.90;;;;;;4994353;28;20181;-85
2021/06/30 07:55:47;;;;;;;22.97;10.33;;;16.00;99.90;;;;;;4990919;28;20238;-86
2021/06/30 07:58:16;;;;;;;25.20;10.73;;;16.00;99.90;;;;;;4977816;28;20183;-85
2021/06/30 08:00:42;;;;;;;22.10;10.17;;;16.10;99.90;;;;;;4991868;28;20212;-85
2021/06/30 08:03:08;;;;;;;21.97;10.37;;;16.40;99.90;;;;;;4980749;28;20180;-85
2021/06/30 08:05:33;;;;;;;25.40;10.13;;;16.60;99.90;;;;;;5014922;28;20596;-85
2021/06/30 08:07:59;;;;;;;19.00;9.03;;;16.80;99.90;;;;;;5013625;28;20196;-85
2021/06/30 08:10:25;;;;;;;17.93;9.50;;;16.80;99.90;;;;;;4979012;28;20185;-85
2021/06/30 08:12:51;;;;;;;18.83;9.27;;;16.70;99.90;;;;;;4980865;28;20191;-86
2021/06/30 08:15:16;;;;;;;19.97;8.93;;;16.70;99.90;;;;;;4996894;28;20194;-86
2021/06/30 08:17:45;;;;;;;18.93;8.80;;;16.40;99.90;;;;;;4987723;28;20242;-85
2021/06/30 08:20:12;;;;;;;19.77;9.00;;;16.10;99.90;;;;;;4988419;28;20212;-85
2021/06/30 08:22:37;;;;;;;18.57;8.97;;;16.20;99.90;;;;;;4980296;28;20200;-85
2021/06/30 08:25:04;;;;;;;20.00;9.80;;;16.00;99.90;;;;;;4982266;28;20171;-85
2021/06/30 08:27:29;;;;;;;19.37;9.20;;;16.10;99.90;;;;;;4984769;28;20650;-86
2021/06/30 08:29:57;;;;;;;18.50;9.03;;;16.10;99.90;;;;;;4978594;28;20218;-85
2021/06/30 08:32:25;;;;;;;22.57;10.70;;;16.30;99.90;;;;;;4982102;28;20190;-84
2021/06/30 08:34:51;;;;;;;20.23;9.10;;;16.50;99.90;;;;;;5010506;28;20176;-86
2021/06/30 08:37:20;;;;;;;18.27;9.00;;;16.60;99.90;;;;;;4979630;28;20195;-86
2021/06/30 08:39:45;;;;;;;19.60;9.20;;;16.60;99.90;;;;;;4979212;28;20317;-86
2021/06/30 08:42:11;;;;;;;18.30;9.20;;;16.70;99.90;;;;;;4998151;28;20668;-86
2021/06/30 08:44:37;;;;;;;18.40;9.73;;;16.80;99.90;;;;;;4979318;28;20200;-86
2021/06/30 08:47:03;;;;;;;17.87;9.00;;;16.80;99.90;;;;;;4980235;28;20192;-86
2021/06/30 08:49:29;;;;;;;19.70;9.40;;;16.80;99.90;;;;;;4995025;28;20221;-86
2021/06/30 08:51:57;;;;;;;19.40;9.63;;;16.90;99.90;;;;;;4998897;28;20201;-86
2021/06/30 08:54:24;;;;;;;19.40;9.00;;;16.60;99.90;;;;;;4982438;28;20197;-86
2021/06/30 08:56:51;;;;;;;17.47;8.43;;;16.50;99.90;;;;;;4979039;28;20195;-86
2021/06/30 08:59:17;;;;;;;16.87;8.87;;;16.60;99.90;;;;;;4981233;28;20235;-85
2021/06/30 09:01:45;;;;;;;17.30;8.50;;;16.50;99.90;;;;;;4977388;28;20616;-86
2021/06/30 09:04:12;;;;;;;15.17;8.27;;;16.40;99.90;;;;;;4982800;28;20540;-85
2021/06/30 09:06:38;;;;;;;16.03;7.67;;;16.60;99.90;;;;;;4979094;28;20195;-85
2021/06/30 09:09:14;;;;;;;19.33;9.43;;;16.50;99.90;;;;;;4996146;28;20740;-85
2021/06/30 09:11:56;;;;;;;19.93;9.20;;;16.70;99.90;;;;;;4995704;28;20200;-86
2021/06/30 09:14:28;;;;;;;15.37;8.07;;;17.00;99.90;;;;;;5012573;28;20545;-86
2021/06/30 09:20:08;;;;;;;16.83;8.63;;;17.30;99.90;;;;;;5009482;28;20585;-86
2021/06/30 09:22:52;;;;;;;18.17;9.10;;;17.50;99.90;;;;;;4997126;28;20189;-86
2021/06/30 09:25:32;;;;;;;16.50;8.60;;;17.70;99.90;;;;;;5007626;28;20269;-86
2021/06/30 09:27:59;;;;;;;16.57;8.63;;;17.70;99.90;;;;;;4994311;28;20201;-86
2021/06/30 09:30:24;;;;;;;18.20;8.47;;;17.70;99.90;;;;;;4996117;28;20190;-86
2021/06/30 09:32:57;;;;;;;18.40;7.90;;;17.80;99.90;;;;;;5015485;28;20583;-86
2021/06/30 09:35:34;;;;;;;14.67;8.20;;;17.80;99.90;;;;;;5007883;28;20550;-86
2021/06/30 09:38:28;;;;;;;17.60;8.13;;;17.80;99.90;;;;;;4996111;28;20985;-85
2021/06/30 09:40:54;;;;;;;14.53;8.00;;;17.80;99.90;;;;;;4993159;28;20298;-86
2021/06/30 09:43:32;;;;;;;16.27;8.87;;;17.90;99.90;;;;;;4979387;28;20658;-86
2021/06/30 09:46:00;;;;;;;18.50;8.83;;;17.80;99.90;;;;;;4991111;28;20740;-86
2021/06/30 09:48:34;;;;;;;16.13;9.33;;;17.70;99.90;;;;;;5004263;28;20186;-86
2021/06/30 09:51:03;;;;;;;19.80;9.33;;;17.40;99.90;;;;;;4995772;28;20215;-86
2021/06/30 09:53:41;;;;;;;16.63;9.30;;;17.40;99.90;;;;;;4995553;28;20174;-86
2021/06/30 09:56:39;;;;;;;19.50;10.63;;;17.20;99.90;;;;;;4972275;28;20189;-85
2021/06/30 09:59:14;;;;;;;16.40;9.10;;;17.00;99.90;;;;;;4978768;28;20216;-85
2021/06/30 10:01:51;;;;;;;17.83;9.10;;;16.90;99.90;;;;;;4972267;28;20207;-85
2021/06/30 10:04:31;;;;;;;12.70;7.43;;;16.80;99.90;;;;;;4996483;28;20192;-85
2021/06/30 10:07:00;;;;;;;15.33;7.73;;;16.70;99.90;;;;;;4979670;28;20288;-85
2021/06/30 10:09:26;;;;;;;14.47;7.90;;;17.00;99.90;;;;;;4993937;28;20243;-85
2021/06/30 10:12:07;;;;;;;17.67;9.03;;;17.10;99.90;;;;;;4978321;28;20181;-85
2021/06/30 10:14:34;;;;;;;19.63;10.63;;;17.30;99.90;;;;;;4993157;28;20196;-86
2021/06/30 10:17:01;;;;;;;23.27;11.30;;;17.30;99.90;;;;;;4981772;28;20190;-84
2021/06/30 10:19:28;;;;;;;24.00;13.07;;;17.30;99.90;;;;;;4994360;28;20208;-86
2021/06/30 10:21:54;;;;;;;26.03;13.20;;;17.10;99.90;;;;;;4995429;28;20170;-86
2021/06/30 10:24:21;;;;;;;30.00;13.27;;;17.00;99.90;;;;;;4995732;28;20187;-85
2021/06/30 10:26:48;;;;;;;24.27;12.43;;;17.10;99.90;;;;;;4977091;28;20297;-85
2021/06/30 10:29:15;;;;;;;28.07;13.03;;;17.30;99.90;;;;;;4978358;28;20232;-86
2021/06/30 10:31:42;;;;;;;27.80;13.67;;;17.50;99.90;;;;;;4991402;28;20177;-86
2021/06/30 10:34:13;;;;;;;24.70;12.47;;;17.70;99.90;;;;;;4978749;28;20194;-84
2021/06/30 10:36:52;;;;;;;22.97;12.13;;;17.90;99.90;;;;;;4978330;28;20197;-87
2021/06/30 10:39:41;;;;;;;21.43;10.97;;;18.00;99.90;;;;;;4994584;28;20225;-86
2021/06/30 10:42:34;;;;;;;19.30;9.40;;;18.10;99.90;;;;;;5002598;28;20209;-86
2021/06/30 10:45:17;;;;;;;16.57;8.73;;;18.00;99.90;;;;;;4975744;28;20277;-86
2021/06/30 10:47:55;;;;;;;18.17;9.20;;;17.80;99.90;;;;;;4977133;28;20182;-86
2021/06/30 10:50:27;;;;;;;15.80;9.60;;;17.60;99.90;;;;;;4971820;28;20713;-87
2021/06/30 10:53:02;;;;;;;17.47;9.57;;;17.80;99.90;;;;;;4992797;28;20670;-85
2021/06/30 10:55:31;;;;;;;16.33;9.77;;;18.10;99.90;;;;;;4976362;28;20277;-87
2021/06/30 11:00:50;;;;;;;20.27;10.33;;;18.50;99.90;;;;;;5004794;28;20213;-86
2021/06/30 11:03:24;;;;;;;17.60;10.10;;;18.30;99.90;;;;;;4979767;28;20244;-85
2021/06/30 11:05:55;;;;;;;17.93;10.83;;;18.30;99.90;;;;;;4993086;28;20174;-85
2021/06/30 11:08:47;;;;;;;19.37;11.00;;;18.20;99.90;;;;;;4971180;28;20202;-84
2021/06/30 11:11:14;;;;;;;21.07;11.30;;;18.40;99.90;;;;;;4977224;28;20714;-86
2021/06/30 11:14:07;;;;;;;20.73;10.50;;;18.10;99.90;;;;;;4978831;28;20592;-85
2021/06/30 11:16:47;;;;;;;19.80;10.47;;;17.30;99.90;;;;;;4992925;28;20227;-87
2021/06/30 11:19:16;;;;;;;24.13;11.70;;;16.90;99.90;;;;;;4989003;28;20268;-87
2021/06/30 11:21:52;;;;;;;23.10;11.73;;;17.20;99.90;;;;;;4987849;28;20194;-87
2021/06/30 11:24:33;;;;;;;20.67;10.77;;;17.20;99.90;;;;;;4993178;28;20196;-86
2021/06/30 11:27:26;;;;;;;22.90;11.80;;;17.10;99.90;;;;;;4986344;28;20554;-85
2021/06/30 11:29:58;;;;;;;22.00;11.37;;;17.30;99.90;;;;;;4966241;28;20201;-85
2021/06/30 11:32:36;;;;;;;20.93;11.40;;;17.20;99.90;;;;;;4977170;28;20177;-85
2021/06/30 11:35:11;;;;;;;23.67;12.40;;;17.60;99.90;;;;;;4994747;28;20407;-86
2021/06/30 11:37:38;;;;;;;26.93;12.17;;;17.90;99.90;;;;;;4974125;28;20197;-85
2021/06/30 11:40:12;;;;;;;22.83;11.10;;;18.20;99.90;;;;;;4974930;28;20232;-87
2021/06/30 11:42:44;;;;;;;24.43;11.20;;;18.40;99.90;;;;;;4992792;28;20251;-85
2021/06/30 11:45:27;;;;;;;23.70;12.20;;;18.20;99.90;;;;;;4999807;28;20845;-86
2021/06/30 11:47:55;;;;;;;24.80;12.47;;;18.30;99.90;;;;;;4974863;28;20733;-87
2021/06/30 11:50:24;;;;;;;21.83;10.87;;;18.40;99.90;;;;;;4977752;28;20221;-87
2021/06/30 11:52:50;;;;;;;25.47;11.70;;;18.50;99.90;;;;;;4970734;28;20284;-87
2021/06/30 11:55:17;;;;;;;27.10;13.10;;;18.50;99.90;;;;;;4973130;28;20174;-86
2021/06/30 11:58:00;;;;;;;26.63;12.20;;;18.70;99.90;;;;;;5009484;28;20186;-86
2021/06/30 12:00:29;;;;;;;21.97;10.63;;;18.70;99.90;;;;;;4974233;28;20696;-86
2021/06/30 12:02:57;;;;;;;20.73;11.40;;;18.60;99.90;;;;;;5000148;28;20845;-87
2021/06/30 12:05:25;;;;;;;23.40;11.07;;;18.80;99.90;;;;;;4991544;28;20517;-87
2021/06/30 12:07:55;;;;;;;21.87;10.77;;;19.00;99.90;;;;;;4994482;28;20284;-88
2021/06/30 12:10:23;;;;;;;26.17;11.67;;;19.10;99.90;;;;;;4978426;28;20288;-88
2021/06/30 12:12:49;;;;;;;23.07;11.47;;;18.80;99.90;;;;;;5009818;28;20231;-88
2021/06/30 12:15:17;;;;;;;24.30;11.27;;;18.90;99.90;;;;;;4979190;28;20197;-87
2021/06/30 12:17:47;;;;;;;25.53;10.93;;;18.90;99.90;;;;;;4992035;28;20196;-87
2021/06/30 12:20:15;;;;;;;29.77;11.87;;;19.10;99.90;;;;;;4977570;28;20216;-87
2021/06/30 12:22:42;;;;;;;28.80;12.17;;;19.10;99.90;;;;;;4975377;28;20216;-88
2021/06/30 12:25:10;;;;;;;28.77;12.80;;;19.30;99.90;;;;;;4973545;28;20265;-87
2021/06/30 12:27:44;;;;;;;25.60;11.93;;;19.20;99.90;;;;;;4976122;28;20199;-87
2021/06/30 12:30:21;;;;;;;31.60;12.40;;;19.40;99.90;;;;;;4976953;28;20300;-88
2021/06/30 12:32:54;;;;;;;29.23;12.10;;;19.50;99.90;;;;;;4991980;28;20191;-87
2021/06/30 12:35:26;;;;;;;24.23;11.57;;;19.70;99.90;;;;;;4994347;28;20231;-86
2021/06/30 12:38:01;;;;;;;30.20;12.97;;;19.80;99.90;;;;;;4983816;28;20233;-86
2021/06/30 12:40:27;;;;;;;27.93;12.53;;;20.10;99.90;;;;;;4990649;28;20229;-87